17:16
Airports
History
Links
Donate
Help keep this website running!
PayPal
Bitcoin
Information on this page is community maintained and may be outdated or inaccurate and is intended for reference only or PC simulator navigating!
Always use approved charts for navigating.
SNJC
Fazenda Agua Boa
Fazenda Agua Boa (SNJC)
Ribamar Fiquene, Maranhao, Brazil (65938)
4
Lat/Lng:5° 57' 40" S / 47° 23' 32" W
-5.961111 / -47.392222
Elevation:495'ft 151mMSL
ID / ICAO:SNJC
Runways:1
Longest:(09-27) 1,030.0m 3,379ft Gravel
Distance To
Airport ID:
Nearby WeatherUpdated 04-24-17 16:00 GMT
Nearby weather at SBIZ, Prefeito Renato Moreira located 30.1 nautical miles from SNJC
Altimeter: 29.85
Visibility: 6.2 statute miles
Wind: 8 knots (230°)
Temp: 35°c 95°f
Humidity: 56.3%

METAR: SBIZ 241600Z 23008KT 9999 BKN023 35/25 Q1011

(Powered by phpweather)
Runway 09 / 27
Dimensions:1030 x 27.1m 3379' x 89'ft
Surface:Gravel
Runway 09 [A]Runway 27 [B]
Heading:069°TH 249°TH
Lat:
Lng:
5° 57' 45.93"S
47° 23' 47.69"W
5° 57' 34.07"S
47° 23' 16.31"W
Google Map
Nearby Airports
4 Comandante Carlos Inacio Agnes 26.6 NM
SIME N 355°
4 Haras Bela Vista 30.0 NM
SJVY NNW 345°
(U) Prefeito Renato Moreira 30.1 NM
SBIZ (WX) N 351°
(U) ARAGUATINS 53.3 NM
SJGU WNW 291°
(C) Araguatins 54.7 NM
SWAI WNW 297°
4 Frisama Acailandia 70.3 NM
SJHX N 355°
4 Fazenda Santa Monica 71.5 NM
SNVQ WSW 237°
VFR Chart
Flight Planning at SkyVector.com